Time;durP1;ratioP1;P1;durP2;ratioP2;P2;SDS_P1;SDS_P2;PMS_P1;PMS_P2;Temp;Humidity;BMP_temperature;BMP_pressure;BME280_temperature;BME280_humidity;BME280_pressure;Samples;Min_cycle;Max_cycle;Signal;HPM_P1;HPM_P2
2021/07/03 00:00:12;;;;;;;7.53;6.70;;;26.90;54.60;;;;;;5086609;28;20515;-74
2021/07/03 00:02:40;;;;;;;9.93;6.67;;;26.90;54.60;;;;;;5083185;28;20528;-74
2021/07/03 00:05:10;;;;;;;9.03;6.03;;;26.80;54.60;;;;;;5084010;28;20419;-74
2021/07/03 00:07:39;;;;;;;6.73;6.10;;;26.80;54.50;;;;;;5086820;28;20436;-74
2021/07/03 00:10:08;;;;;;;7.40;5.70;;;26.80;54.50;;;;;;5086143;28;20452;-74
2021/07/03 00:12:36;;;;;;;8.87;5.53;;;26.80;54.40;;;;;;5085997;28;20562;-74
2021/07/03 00:15:06;;;;;;;7.60;5.30;;;26.80;54.30;;;;;;5086364;28;20560;-74
2021/07/03 00:17:34;;;;;;;6.77;5.40;;;26.80;54.30;;;;;;5081956;28;20475;-74
2021/07/03 00:20:03;;;;;;;8.07;5.70;;;26.80;54.20;;;;;;5086053;28;20460;-74
2021/07/03 00:22:31;;;;;;;6.03;5.43;;;26.80;54.00;;;;;;5085963;28;20508;-74
2021/07/03 00:25:00;;;;;;;6.40;5.80;;;26.80;54.00;;;;;;5086310;28;20502;-75
2021/07/03 00:27:28;;;;;;;7.60;5.60;;;26.70;54.00;;;;;;5086329;28;20418;-75
2021/07/03 00:29:56;;;;;;;7.10;5.40;;;26.70;54.00;;;;;;5085845;28;20451;-74
2021/07/03 00:32:24;;;;;;;8.07;5.53;;;26.70;53.90;;;;;;5085886;28;20478;-74
2021/07/03 00:34:52;;;;;;;7.83;6.07;;;26.70;53.90;;;;;;5085804;28;20440;-74
2021/07/03 00:37:20;;;;;;;5.80;5.03;;;26.70;53.80;;;;;;5083217;28;20473;-74
2021/07/03 00:39:48;;;;;;;5.57;5.00;;;26.60;53.80;;;;;;5085559;28;20490;-75
2021/07/03 00:42:20;;;;;;;6.33;5.40;;;26.70;53.70;;;;;;5086173;28;20536;-75
2021/07/03 00:44:48;;;;;;;7.47;5.27;;;26.60;53.60;;;;;;5086069;28;20423;-75
2021/07/03 00:47:16;;;;;;;6.20;4.93;;;26.60;53.70;;;;;;5086144;28;20419;-74
2021/07/03 00:49:44;;;;;;;8.50;5.10;;;26.60;53.70;;;;;;5085305;28;20416;-75
2021/07/03 00:52:12;;;;;;;5.73;5.00;;;26.50;53.70;;;;;;5085584;28;20502;-75
2021/07/03 00:54:40;;;;;;;8.90;4.87;;;26.50;53.70;;;;;;5079210;28;20436;-74
2021/07/03 00:57:08;;;;;;;5.33;4.30;;;26.60;53.60;;;;;;5076773;28;20535;-74
2021/07/03 00:59:38;;;;;;;9.17;5.10;;;26.60;53.50;;;;;;5075457;28;20464;-74
2021/07/03 01:02:07;;;;;;;9.83;4.70;;;26.50;53.40;;;;;;5074675;28;20400;-74
2021/07/03 01:04:35;;;;;;;5.20;4.80;;;26.50;53.40;;;;;;5073455;28;20399;-74
2021/07/03 01:07:04;;;;;;;5.60;5.10;;;26.50;53.40;;;;;;5074595;28;20407;-74
2021/07/03 01:09:32;;;;;;;7.60;5.17;;;26.40;53.40;;;;;;5072798;28;20433;-74
2021/07/03 01:11:59;;;;;;;5.20;4.80;;;26.40;53.40;;;;;;5074990;28;20438;-74
2021/07/03 01:14:27;;;;;;;8.63;5.57;;;26.40;53.40;;;;;;5074901;28;20773;-75
2021/07/03 01:16:57;;;;;;;6.03;5.43;;;26.30;53.10;;;;;;5073030;28;20519;-77
2021/07/03 01:19:24;;;;;;;4.90;4.50;;;26.10;53.30;;;;;;5074457;28;20512;-77
2021/07/03 01:21:54;;;;;;;5.20;4.80;;;26.00;53.60;;;;;;5075617;28;20490;-77
2021/07/03 01:24:23;;;;;;;5.93;4.67;;;25.90;53.70;;;;;;5078079;28;20474;-78
2021/07/03 01:26:52;;;;;;;5.40;4.90;;;25.80;53.90;;;;;;5072907;28;20490;-78
2021/07/03 01:29:20;;;;;;;7.10;4.90;;;25.60;54.10;;;;;;5074257;28;20429;-77
2021/07/03 01:31:49;;;;;;;7.00;5.00;;;25.50;54.30;;;;;;5073168;28;20425;-77
2021/07/03 01:34:17;;;;;;;5.73;5.13;;;25.40;54.40;;;;;;5077847;28;20473;-77
2021/07/03 01:36:46;;;;;;;7.57;5.30;;;25.30;54.50;;;;;;5079300;28;20413;-77
2021/07/03 01:39:15;;;;;;;5.60;5.10;;;25.30;54.70;;;;;;5068050;28;20525;-77
2021/07/03 01:41:43;;;;;;;5.33;4.90;;;25.20;54.70;;;;;;5075927;28;20528;-77
2021/07/03 01:44:11;;;;;;;6.20;5.00;;;25.20;54.80;;;;;;5073255;28;20435;-77
2021/07/03 01:46:39;;;;;;;5.33;4.90;;;25.10;54.80;;;;;;5072407;28;20445;-78
2021/07/03 01:49:08;;;;;;;5.97;5.37;;;25.00;54.80;;;;;;5074192;28;20413;-77
2021/07/03 01:51:38;;;;;;;7.00;4.90;;;25.00;54.80;;;;;;5075986;28;20511;-77
2021/07/03 01:54:06;;;;;;;5.63;4.60;;;24.90;54.90;;;;;;5083733;28;20481;-78
2021/07/03 01:56:35;;;;;;;7.53;5.43;;;24.90;55.00;;;;;;5082879;28;20543;-77
2021/07/03 01:59:03;;;;;;;4.97;4.43;;;24.80;54.90;;;;;;5079592;28;20444;-77
2021/07/03 02:01:31;;;;;;;5.17;4.77;;;24.80;55.00;;;;;;5083584;28;20479;-77
2021/07/03 02:03:59;;;;;;;5.33;4.83;;;24.70;55.00;;;;;;5084010;28;20416;-77
2021/07/03 02:06:27;;;;;;;4.83;4.37;;;24.70;54.90;;;;;;5083997;28;20572;-78
2021/07/03 02:08:54;;;;;;;5.97;4.97;;;24.70;55.00;;;;;;5083746;28;20533;-78
2021/07/03 02:11:22;;;;;;;5.07;4.40;;;24.60;55.00;;;;;;5083142;28;20496;-77
2021/07/03 02:13:52;;;;;;;5.40;4.90;;;24.60;55.00;;;;;;5083269;28;20496;-77
2021/07/03 02:16:19;;;;;;;4.60;4.20;;;24.50;54.90;;;;;;5084376;28;20499;-77
2021/07/03 02:18:47;;;;;;;4.97;4.57;;;24.50;55.00;;;;;;5084489;28;20442;-77
2021/07/03 02:21:16;;;;;;;4.97;4.50;;;24.50;55.00;;;;;;5084307;28;20433;-78
2021/07/03 02:23:43;;;;;;;8.67;4.87;;;24.40;54.90;;;;;;5084067;28;20496;-77
2021/07/03 02:26:11;;;;;;;4.60;4.20;;;24.40;55.00;;;;;;5084723;28;20531;-77
2021/07/03 02:28:39;;;;;;;4.70;4.30;;;24.30;54.90;;;;;;5082066;28;20445;-78
2021/07/03 02:31:08;;;;;;;4.90;4.40;;;24.30;54.90;;;;;;5072518;28;20464;-78
2021/07/03 02:33:36;;;;;;;4.87;4.20;;;24.30;54.90;;;;;;5081790;28;20451;-78
2021/07/03 02:36:05;;;;;;;5.17;4.73;;;24.30;54.90;;;;;;5083864;28;20492;-78
2021/07/03 02:38:32;;;;;;;4.30;4.00;;;24.20;54.90;;;;;;5083301;28;20423;-78
2021/07/03 02:41:00;;;;;;;4.40;4.07;;;24.20;55.00;;;;;;5074856;28;20450;-78
2021/07/03 02:43:28;;;;;;;7.63;3.93;;;24.10;54.90;;;;;;5077629;28;20433;-79
2021/07/03 02:45:56;;;;;;;5.00;4.57;;;24.10;54.80;;;;;;5083683;28;20444;-79
2021/07/03 02:48:26;;;;;;;5.10;4.60;;;24.10;54.80;;;;;;5083280;28;20472;-79
2021/07/03 02:50:56;;;;;;;4.20;3.90;;;24.10;54.70;;;;;;5075967;28;20482;-79
2021/07/03 02:53:24;;;;;;;5.00;4.60;;;24.10;54.70;;;;;;5083704;28;20444;-78
2021/07/03 02:55:52;;;;;;;7.80;4.57;;;24.00;54.60;;;;;;5084119;28;20431;-78
2021/07/03 02:58:20;;;;;;;4.10;3.80;;;23.90;54.80;;;;;;5083619;28;20483;-79
2021/07/03 03:00:48;;;;;;;4.30;4.00;;;23.90;54.70;;;;;;5078264;28;20415;-78
2021/07/03 03:03:16;;;;;;;4.77;4.30;;;23.90;54.40;;;;;;5083368;28;20433;-78
2021/07/03 03:05:45;;;;;;;4.70;4.30;;;23.90;54.50;;;;;;5083693;28;20412;-78
2021/07/03 03:08:13;;;;;;;4.53;3.90;;;23.90;54.60;;;;;;5083372;28;20595;-78
2021/07/03 03:10:41;;;;;;;4.33;4.03;;;23.90;54.50;;;;;;5084179;28;20460;-78
2021/07/03 03:13:09;;;;;;;4.83;4.33;;;23.90;54.40;;;;;;5083698;28;20483;-78
2021/07/03 03:15:37;;;;;;;4.37;4.07;;;23.90;54.30;;;;;;5082877;28;20457;-78
2021/07/03 03:18:05;;;;;;;4.13;3.83;;;23.80;54.20;;;;;;5083900;28;20467;-78
2021/07/03 03:20:33;;;;;;;4.93;4.33;;;23.80;54.50;;;;;;5084104;28;20509;-78
2021/07/03 03:23:02;;;;;;;4.60;4.30;;;23.70;54.30;;;;;;5089517;28;20510;-78
2021/07/03 03:25:30;;;;;;;4.50;4.10;;;23.70;54.40;;;;;;5087805;28;20489;-78
2021/07/03 03:27:58;;;;;;;4.60;4.20;;;23.70;54.40;;;;;;5087920;28;20429;-78
2021/07/03 03:30:26;;;;;;;5.00;4.50;;;23.70;54.20;;;;;;5087378;28;20431;-78
2021/07/03 03:32:53;;;;;;;5.13;3.97;;;23.70;54.20;;;;;;5086907;28;20444;-78
2021/07/03 03:35:22;;;;;;;5.20;4.07;;;23.60;54.10;;;;;;5086812;28;20479;-78
2021/07/03 03:37:50;;;;;;;3.90;3.50;;;23.50;54.20;;;;;;5086826;28;20502;-78
2021/07/03 03:40:20;;;;;;;4.20;3.90;;;23.60;54.30;;;;;;5087205;28;20441;-79
2021/07/03 03:42:48;;;;;;;3.83;3.53;;;23.50;54.10;;;;;;5087055;28;20502;-79
2021/07/03 03:45:16;;;;;;;3.90;3.60;;;23.50;54.20;;;;;;5086952;28;20436;-78
2021/07/03 03:47:44;;;;;;;4.10;3.80;;;23.60;54.20;;;;;;5086466;28;20468;-78
2021/07/03 03:50:12;;;;;;;5.30;4.30;;;23.60;54.10;;;;;;5087030;28;20449;-78
2021/07/03 03:52:40;;;;;;;3.97;3.67;;;23.50;53.90;;;;;;5086904;28;20417;-78
2021/07/03 03:55:10;;;;;;;3.90;3.70;;;23.50;53.90;;;;;;5086705;28;20483;-78
2021/07/03 03:57:39;;;;;;;4.30;4.00;;;23.40;53.90;;;;;;5086417;28;20502;-78
2021/07/03 04:00:09;;;;;;;4.27;3.83;;;23.40;54.00;;;;;;5087249;28;20425;-79
2021/07/03 04:02:37;;;;;;;4.53;4.13;;;23.50;53.80;;;;;;5080013;28;20449;-76
2021/07/03 04:05:07;;;;;;;4.63;4.23;;;23.50;53.70;;;;;;5082549;28;20429;-75
2021/07/03 04:07:35;;;;;;;6.10;4.30;;;23.50;53.70;;;;;;5082474;28;20474;-76
2021/07/03 04:10:03;;;;;;;4.53;4.17;;;23.40;53.50;;;;;;5086710;28;20491;-76
2021/07/03 04:12:31;;;;;;;3.67;3.47;;;23.40;53.70;;;;;;5086079;28;20408;-76
2021/07/03 04:15:00;;;;;;;4.07;3.77;;;23.50;53.50;;;;;;5085961;28;20439;-76
2021/07/03 04:17:28;;;;;;;3.97;3.67;;;23.50;53.60;;;;;;5085549;28;20536;-76
2021/07/03 04:19:56;;;;;;;3.97;3.67;;;23.40;53.30;;;;;;5085736;28;20494;-76
2021/07/03 04:22:24;;;;;;;4.10;3.80;;;23.40;53.40;;;;;;5086017;28;20506;-76
2021/07/03 04:24:52;;;;;;;3.90;3.60;;;23.30;53.40;;;;;;5086663;28;20451;-76
2021/07/03 04:27:19;;;;;;;3.90;3.60;;;23.40;53.50;;;;;;5086552;28;20449;-76
2021/07/03 04:29:47;;;;;;;4.90;3.63;;;23.40;53.40;;;;;;5086034;28;20415;-76
2021/07/03 04:32:17;;;;;;;4.10;3.83;;;23.40;53.60;;;;;;5085705;28;20510;-76
2021/07/03 04:34:44;;;;;;;4.00;3.70;;;23.40;53.40;;;;;;5085535;28;20552;-76
2021/07/03 04:37:12;;;;;;;3.20;3.10;;;23.30;53.40;;;;;;5085314;28;20463;-76
2021/07/03 04:39:40;;;;;;;3.93;3.63;;;23.40;53.40;;;;;;5064872;28;20551;-76
2021/07/03 04:42:08;;;;;;;3.47;3.27;;;23.40;53.30;;;;;;5065261;28;20440;-75
2021/07/03 04:44:36;;;;;;;3.90;3.70;;;23.30;53.10;;;;;;5065724;28;20408;-75
2021/07/03 04:47:04;;;;;;;3.80;3.60;;;23.30;53.20;;;;;;5065682;28;20532;-76
2021/07/03 04:49:33;;;;;;;3.30;3.10;;;23.30;53.10;;;;;;5065907;28;20517;-76
2021/07/03 04:52:01;;;;;;;3.30;3.10;;;23.30;53.10;;;;;;5066126;28;20436;-75
2021/07/03 04:54:29;;;;;;;3.60;3.40;;;23.40;53.00;;;;;;5071084;28;20548;-76
2021/07/03 04:57:07;;;;;;;3.80;3.50;;;23.30;52.90;;;;;;5085893;28;20495;-76
2021/07/03 04:59:36;;;;;;;3.93;3.63;;;23.30;52.90;;;;;;5085650;28;20427;-76
2021/07/03 05:02:05;;;;;;;5.43;3.20;;;23.30;52.90;;;;;;5085855;28;20423;-76
2021/07/03 05:04:34;;;;;;;3.40;3.20;;;23.30;52.80;;;;;;5085741;28;20477;-76
2021/07/03 05:07:02;;;;;;;3.47;3.27;;;23.30;53.00;;;;;;5085255;28;20422;-76
2021/07/03 05:09:30;;;;;;;3.23;3.13;;;23.30;52.70;;;;;;5085175;28;20452;-76
2021/07/03 05:11:58;;;;;;;3.87;3.57;;;23.30;52.90;;;;;;5084684;28;20507;-76
2021/07/03 05:14:26;;;;;;;6.33;3.10;;;23.30;52.80;;;;;;5085787;28;20547;-76
2021/07/03 05:16:54;;;;;;;3.30;3.10;;;23.30;52.70;;;;;;5084817;28;20494;-76
2021/07/03 05:19:22;;;;;;;3.53;3.33;;;23.30;52.80;;;;;;5085452;28;20448;-76
2021/07/03 05:21:51;;;;;;;3.70;3.50;;;23.30;52.40;;;;;;5085153;28;20518;-76
2021/07/03 05:24:19;;;;;;;2.97;2.87;;;23.30;52.60;;;;;;5084878;28;20465;-76
2021/07/03 05:26:47;;;;;;;3.70;3.40;;;23.30;52.60;;;;;;5085417;28;20461;-76
2021/07/03 05:29:15;;;;;;;3.37;3.17;;;23.30;52.60;;;;;;5084172;28;20468;-76
2021/07/03 05:31:42;;;;;;;3.40;3.20;;;23.40;52.50;;;;;;5084582;28;20400;-76
2021/07/03 05:34:10;;;;;;;3.40;3.10;;;23.40;52.50;;;;;;5084812;28;20555;-75
2021/07/03 05:36:38;;;;;;;3.13;2.97;;;23.40;52.50;;;;;;5084600;28;20571;-75
2021/07/03 05:39:08;;;;;;;3.70;3.40;;;23.50;52.50;;;;;;5084598;28;20443;-75
2021/07/03 05:41:36;;;;;;;3.53;3.10;;;23.50;52.30;;;;;;5084841;28;20411;-75
2021/07/03 05:44:04;;;;;;;3.60;3.30;;;23.40;52.20;;;;;;5085082;28;20445;-75
2021/07/03 05:46:32;;;;;;;3.33;3.13;;;23.40;52.10;;;;;;5083784;28;20524;-75
2021/07/03 05:49:02;;;;;;;3.07;2.87;;;23.50;52.20;;;;;;5084612;28;20549;-75
2021/07/03 05:51:30;;;;;;;3.10;2.90;;;23.50;52.10;;;;;;5084193;28;20488;-75
2021/07/03 05:53:57;;;;;;;3.70;3.50;;;23.50;52.00;;;;;;5084860;28;20510;-77
2021/07/03 05:56:27;;;;;;;3.33;3.03;;;23.50;51.90;;;;;;5084560;28;20538;-75
2021/07/03 05:58:55;;;;;;;3.50;3.30;;;23.60;52.00;;;;;;5084109;28;20446;-77
2021/07/03 06:01:24;;;;;;;3.50;3.30;;;23.60;52.60;;;;;;5083843;28;20438;-77
2021/07/03 06:03:52;;;;;;;3.50;3.30;;;23.70;51.80;;;;;;5084023;28;20423;-75
2021/07/03 06:06:20;;;;;;;3.33;3.10;;;23.70;51.70;;;;;;5084415;28;20466;-75
2021/07/03 06:08:48;;;;;;;3.30;3.10;;;23.80;51.60;;;;;;5084208;28;20536;-77
2021/07/03 06:11:16;;;;;;;3.93;3.63;;;23.80;51.50;;;;;;5083788;28;20506;-75
2021/07/03 06:13:45;;;;;;;2.70;2.60;;;23.80;51.60;;;;;;5084235;28;20447;-75
2021/07/03 06:16:13;;;;;;;4.30;3.00;;;23.80;51.60;;;;;;5084101;28;20470;-75
2021/07/03 06:18:41;;;;;;;2.90;2.70;;;23.80;51.60;;;;;;5083781;28;20502;-77
2021/07/03 06:21:09;;;;;;;3.27;3.07;;;23.80;51.50;;;;;;5083960;28;20522;-77
2021/07/03 06:23:37;;;;;;;3.07;2.77;;;23.90;51.50;;;;;;5084268;28;20466;-77
2021/07/03 06:26:05;;;;;;;3.13;2.97;;;23.90;51.40;;;;;;5084122;28;20467;-77
2021/07/03 06:28:33;;;;;;;3.43;3.23;;;24.00;51.40;;;;;;5083809;28;20441;-77
2021/07/03 06:31:02;;;;;;;3.27;3.07;;;24.00;51.40;;;;;;5083986;28;20410;-77
2021/07/03 06:33:30;;;;;;;2.60;2.50;;;24.00;51.40;;;;;;5084215;28;20476;-75
2021/07/03 06:35:59;;;;;;;3.23;3.03;;;24.00;51.30;;;;;;5083561;28;20439;-76
2021/07/03 06:38:27;;;;;;;5.93;3.47;;;24.10;51.40;;;;;;5084050;28;20494;-75
2021/07/03 06:40:55;;;;;;;3.80;3.60;;;24.10;51.40;;;;;;5083978;28;20432;-76
2021/07/03 06:43:23;;;;;;;3.27;3.07;;;24.20;51.30;;;;;;5081460;28;20541;-77
2021/07/03 06:45:51;;;;;;;3.37;3.17;;;24.20;51.40;;;;;;5075185;28;20451;-75
2021/07/03 06:48:21;;;;;;;2.80;2.60;;;24.20;51.40;;;;;;5075185;28;20425;-75
2021/07/03 06:50:50;;;;;;;2.70;2.60;;;24.30;51.30;;;;;;5072866;28;20502;-77
2021/07/03 06:53:23;;;;;;;2.97;2.73;;;24.30;51.30;;;;;;5072426;28;20403;-78
2021/07/03 06:55:51;;;;;;;3.37;3.10;;;24.40;51.20;;;;;;5073439;28;20481;-77
2021/07/03 06:58:22;;;;;;;5.80;3.90;;;24.50;51.20;;;;;;5081397;28;20536;-77
2021/07/03 07:00:52;;;;;;;2.90;2.80;;;24.50;51.20;;;;;;5079891;28;20482;-77
2021/07/03 07:03:24;;;;;;;3.37;3.10;;;24.60;51.10;;;;;;5076025;28;20499;-77
2021/07/03 07:05:54;;;;;;;3.17;2.97;;;24.80;51.00;;;;;;5076924;28;20450;-77
2021/07/03 07:08:25;;;;;;;3.47;3.27;;;24.80;50.80;;;;;;5077395;28;20440;-77
2021/07/03 07:11:02;;;;;;;2.73;2.60;;;25.00;50.80;;;;;;5078347;28;20400;-77
2021/07/03 07:13:30;;;;;;;3.00;2.70;;;25.10;50.70;;;;;;5085334;28;20444;-76
2021/07/03 07:16:01;;;;;;;2.90;2.70;;;25.20;50.40;;;;;;5086884;28;20411;-76
2021/07/03 07:18:39;;;;;;;3.10;3.00;;;25.20;50.30;;;;;;5087579;28;20486;-77
2021/07/03 07:21:08;;;;;;;2.97;2.77;;;25.30;50.30;;;;;;5087299;28;20515;-77
2021/07/03 07:23:38;;;;;;;2.70;2.60;;;25.40;50.10;;;;;;5087660;28;20525;-78
2021/07/03 07:26:14;;;;;;;2.83;2.73;;;25.50;50.20;;;;;;5087404;28;20429;-78
2021/07/03 07:28:50;;;;;;;2.87;2.77;;;25.60;50.00;;;;;;5087197;28;20430;-78
2021/07/03 07:31:24;;;;;;;2.93;2.73;;;25.90;49.60;;;;;;5083380;28;20440;-79
2021/07/03 07:34:15;;;;;;;2.70;2.60;;;26.00;49.10;;;;;;5083534;28;20420;-78
2021/07/03 07:36:51;;;;;;;2.80;2.60;;;26.20;49.10;;;;;;5079454;28;20464;-78
2021/07/03 07:39:22;;;;;;;3.27;3.03;;;26.20;49.50;;;;;;5074412;28;20415;-78
2021/07/03 07:41:55;;;;;;;3.30;3.00;;;26.30;49.20;;;;;;5075709;28;20448;-78
2021/07/03 07:44:26;;;;;;;3.40;3.20;;;26.40;49.70;;;;;;5078815;28;20429;-78
2021/07/03 07:47:03;;;;;;;3.93;3.27;;;26.50;49.50;;;;;;5077132;28;20494;-77
2021/07/03 07:49:33;;;;;;;3.30;3.10;;;26.70;49.50;;;;;;5076435;28;20400;-78
2021/07/03 07:52:01;;;;;;;2.80;2.70;;;26.80;49.30;;;;;;5078250;28;20396;-78
2021/07/03 07:54:35;;;;;;;3.27;2.80;;;26.90;49.30;;;;;;5078379;28;20405;-77
2021/07/03 07:57:06;;;;;;;2.73;2.63;;;27.00;49.20;;;;;;5079433;28;20512;-78
2021/07/03 07:59:37;;;;;;;2.90;2.70;;;27.10;48.90;;;;;;5076437;28;20421;-76
2021/07/03 08:02:07;;;;;;;3.40;3.20;;;27.10;49.10;;;;;;5075340;28;20397;-77
2021/07/03 08:04:42;;;;;;;2.63;2.53;;;27.30;49.30;;;;;;5074948;28;20424;-77
2021/07/03 08:07:23;;;;;;;2.73;2.63;;;27.30;49.20;;;;;;5077971;28;20422;-77
2021/07/03 08:10:00;;;;;;;3.10;2.80;;;27.50;49.20;;;;;;5080603;28;20436;-77
2021/07/03 08:12:48;;;;;;;2.80;2.70;;;27.60;49.00;;;;;;5085799;28;20472;-78
2021/07/03 08:15:16;;;;;;;2.93;2.83;;;27.70;49.10;;;;;;5086415;28;20416;-78
2021/07/03 08:17:50;;;;;;;2.63;2.53;;;27.80;49.10;;;;;;5086446;28;20454;-78
2021/07/03 08:20:21;;;;;;;2.90;2.80;;;28.00;49.00;;;;;;5085015;28;20420;-78
2021/07/03 08:22:50;;;;;;;2.60;2.50;;;28.20;48.90;;;;;;5085777;28;20476;-77
2021/07/03 08:25:21;;;;;;;2.83;2.63;;;28.30;49.10;;;;;;5086186;28;20452;-79
2021/07/03 08:27:59;;;;;;;2.70;2.57;;;28.50;49.00;;;;;;5085861;28;20404;-77
2021/07/03 08:30:31;;;;;;;2.70;2.60;;;28.70;48.80;;;;;;5083689;28;20406;-77
2021/07/03 08:33:07;;;;;;;2.50;2.40;;;28.90;48.90;;;;;;5065757;28;20420;-76
2021/07/03 08:35:46;;;;;;;2.20;2.10;;;29.00;48.70;;;;;;5075954;28;20463;-78
2021/07/03 08:38:17;;;;;;;2.87;2.77;;;29.20;48.60;;;;;;5085623;28;20468;-76
2021/07/03 08:40:47;;;;;;;3.00;2.90;;;29.30;48.70;;;;;;5085358;28;20445;-77
2021/07/03 08:43:22;;;;;;;3.03;2.83;;;29.50;48.60;;;;;;5076587;28;20437;-77
2021/07/03 08:45:55;;;;;;;2.87;2.77;;;29.60;48.50;;;;;;5073294;28;20429;-77
2021/07/03 08:48:26;;;;;;;3.00;2.90;;;29.70;48.60;;;;;;5074029;28;20421;-78
2021/07/03 08:51:01;;;;;;;2.40;2.30;;;29.80;48.60;;;;;;5074972;28;20405;-78
2021/07/03 08:53:32;;;;;;;2.63;2.53;;;29.90;48.50;;;;;;5081172;28;20411;-77
2021/07/03 08:56:00;;;;;;;2.90;2.80;;;30.00;48.60;;;;;;5074862;28;20496;-77
2021/07/03 08:58:30;;;;;;;2.70;2.60;;;30.20;48.50;;;;;;5073589;28;20496;-78
2021/07/03 09:00:58;;;;;;;2.63;2.53;;;30.30;48.40;;;;;;5073045;28;20484;-78
2021/07/03 09:03:27;;;;;;;2.50;2.40;;;30.50;48.20;;;;;;5070373;28;20433;-78
2021/07/03 09:06:06;;;;;;;3.33;3.03;;;30.60;47.90;;;;;;5069174;28;20554;-77
2021/07/03 09:08:35;;;;;;;2.80;2.70;;;30.60;47.90;;;;;;5070347;28;20512;-78
2021/07/03 09:11:10;;;;;;;3.07;2.87;;;30.70;48.00;;;;;;5079140;28;20441;-76
2021/07/03 09:13:42;;;;;;;2.60;2.40;;;30.80;47.90;;;;;;5087065;28;20429;-76
2021/07/03 09:16:10;;;;;;;2.40;2.20;;;30.90;48.10;;;;;;5083290;28;20512;-76
2021/07/03 09:18:39;;;;;;;3.10;2.27;;;31.00;48.00;;;;;;5084196;28;20483;-78
2021/07/03 09:21:11;;;;;;;3.33;2.30;;;31.10;48.00;;;;;;5080930;28;20445;-77
2021/07/03 09:23:39;;;;;;;3.63;2.40;;;31.20;48.00;;;;;;5087778;28;20433;-79
2021/07/03 09:26:12;;;;;;;2.17;2.07;;;31.30;47.90;;;;;;5087157;28;20433;-78
2021/07/03 09:28:40;;;;;;;2.60;2.50;;;31.40;47.80;;;;;;5087599;28;20433;-77
2021/07/03 09:31:17;;;;;;;2.80;2.60;;;31.60;47.80;;;;;;5088725;28;20425;-78
2021/07/03 09:33:49;;;;;;;2.83;2.50;;;31.80;47.70;;;;;;5080645;28;20440;-77
2021/07/03 09:36:26;;;;;;;6.70;2.63;;;31.90;47.40;;;;;;5085896;28;20428;-77
2021/07/03 09:38:57;;;;;;;3.97;2.13;;;31.90;47.10;;;;;;5088572;28;20461;-77
2021/07/03 09:41:32;;;;;;;3.33;2.17;;;32.10;47.30;;;;;;5088445;28;20451;-78
2021/07/03 09:44:02;;;;;;;2.77;2.40;;;32.10;47.30;;;;;;5088215;28;20452;-78
2021/07/03 09:46:33;;;;;;;2.40;2.20;;;32.20;47.40;;;;;;5089042;28;20437;-76
2021/07/03 09:49:08;;;;;;;2.33;2.23;;;32.30;47.40;;;;;;5087134;28;20432;-77
2021/07/03 09:51:39;;;;;;;2.93;2.60;;;32.50;47.40;;;;;;5087695;28;20436;-77
2021/07/03 09:54:07;;;;;;;4.30;2.40;;;32.60;47.30;;;;;;5087310;28;20436;-77
2021/07/03 09:56:36;;;;;;;2.40;2.20;;;32.80;47.20;;;;;;5086468;28;20453;-77
2021/07/03 09:59:06;;;;;;;2.47;2.30;;;32.90;47.10;;;;;;5085978;28;20479;-77
2021/07/03 10:01:50;;;;;;;3.13;2.13;;;33.10;46.90;;;;;;5086566;28;20437;-77
2021/07/03 10:04:28;;;;;;;2.43;2.33;;;33.30;46.80;;;;;;5087621;28;20460;-77
2021/07/03 10:07:06;;;;;;;2.13;2.03;;;33.50;46.50;;;;;;5087805;28;20452;-77
2021/07/03 10:09:42;;;;;;;2.83;2.20;;;33.70;46.20;;;;;;5087413;28;20455;-77
2021/07/03 10:12:15;;;;;;;2.43;2.27;;;33.90;46.00;;;;;;5088110;28;20456;-78
2021/07/03 10:14:44;;;;;;;2.30;2.20;;;34.00;45.80;;;;;;5088201;28;20455;-78
2021/07/03 10:17:12;;;;;;;2.30;2.20;;;34.20;45.60;;;;;;5088086;28;20440;-77
2021/07/03 10:19:48;;;;;;;2.27;2.17;;;34.40;45.40;;;;;;5087738;28;20501;-78
2021/07/03 10:22:18;;;;;;;2.23;2.13;;;34.60;45.20;;;;;;5087640;28;20458;-78
2021/07/03 10:24:51;;;;;;;2.10;2.00;;;34.80;45.50;;;;;;5086185;28;20436;-77
2021/07/03 10:27:21;;;;;;;1.90;1.83;;;34.80;44.80;;;;;;5086187;28;20436;-78
2021/07/03 10:29:49;;;;;;;2.40;2.30;;;34.90;44.70;;;;;;5086670;28;20490;-77
2021/07/03 10:32:29;;;;;;;2.40;2.10;;;35.20;44.60;;;;;;5091409;28;20441;-78
2021/07/03 10:35:09;;;;;;;2.50;2.30;;;35.00;44.30;;;;;;5092079;28;20452;-78
2021/07/03 10:37:40;;;;;;;2.33;2.23;;;35.20;44.70;;;;;;5092223;28;20468;-78
2021/07/03 10:40:19;;;;;;;2.60;2.40;;;35.40;44.40;;;;;;5091544;28;20440;-78
2021/07/03 10:42:47;;;;;;;2.50;2.30;;;35.60;44.10;;;;;;5092636;28;20525;-77
2021/07/03 10:45:20;;;;;;;3.47;2.27;;;35.80;43.90;;;;;;5092155;28;20445;-78
2021/07/03 10:47:53;;;;;;;3.83;2.40;;;36.00;43.80;;;;;;5092285;28;20451;-77
2021/07/03 10:50:25;;;;;;;2.43;2.20;;;36.20;43.40;;;;;;5092110;28;20444;-78
2021/07/03 10:53:04;;;;;;;2.43;2.33;;;36.40;43.20;;;;;;5091690;28;20420;-78
2021/07/03 10:55:34;;;;;;;1.97;1.90;;;36.70;42.80;;;;;;5089999;28;20436;-78
2021/07/03 10:58:12;;;;;;;2.47;2.27;;;36.80;42.60;;;;;;5089576;28;20530;-78
2021/07/03 11:00:40;;;;;;;2.33;2.13;;;36.90;42.60;;;;;;5090424;28;20454;-78
2021/07/03 11:03:13;;;;;;;2.00;1.90;;;37.00;42.20;;;;;;5089498;28;20439;-78
2021/07/03 11:05:41;;;;;;;2.23;2.13;;;37.10;42.20;;;;;;5090331;28;20441;-79
2021/07/03 11:08:36;;;;;;;3.00;2.80;;;37.30;41.90;;;;;;5090464;28;20428;-73
2021/07/03 11:11:07;;;;;;;2.30;2.20;;;37.30;35.90;;;;;;5087727;28;20440;-72
2021/07/03 11:13:35;;;;;;;2.33;2.23;;;33.80;33.10;;;;;;5086080;28;20443;-73
2021/07/03 11:16:07;;;;;;;2.50;2.37;;;32.10;34.70;;;;;;5089501;28;20441;-71
2021/07/03 11:18:41;;;;;;;3.53;2.53;;;32.20;37.90;;;;;;5089085;28;20474;-71
2021/07/03 11:21:09;;;;;;;2.17;2.07;;;32.60;37.10;;;;;;5079372;28;20581;-71
2021/07/03 11:23:40;;;;;;;2.80;2.70;;;32.60;36.80;;;;;;5081323;28;20488;-73
2021/07/03 11:26:11;;;;;;;6.90;3.07;;;32.40;37.60;;;;;;5076783;28;20465;-72
2021/07/03 11:28:41;;;;;;;4.13;2.63;;;31.90;38.20;;;;;;5068390;28;20457;-72
2021/07/03 11:31:11;;;;;;;4.63;2.53;;;31.70;38.60;;;;;;5068410;28;20460;-71
2021/07/03 11:33:42;;;;;;;2.60;2.40;;;31.40;39.30;;;;;;5068749;28;20434;-71
2021/07/03 11:36:15;;;;;;;3.23;3.03;;;31.40;39.70;;;;;;5083997;28;20432;-72
2021/07/03 11:38:44;;;;;;;3.20;3.00;;;31.20;39.20;;;;;;5086870;28;20471;-72
2021/07/03 11:41:17;;;;;;;2.73;2.60;;;30.90;39.30;;;;;;5085331;28;20449;-72
2021/07/03 11:43:47;;;;;;;3.13;2.93;;;31.00;39.60;;;;;;5088138;28;20579;-73
2021/07/03 11:46:17;;;;;;;5.43;3.13;;;30.80;39.60;;;;;;5081567;28;20520;-71
2021/07/03 11:48:50;;;;;;;2.90;2.67;;;30.90;40.80;;;;;;5087286;28;20429;-73
2021/07/03 11:51:20;;;;;;;3.03;2.83;;;31.10;40.00;;;;;;5089765;28;20495;-71
2021/07/03 11:53:54;;;;;;;3.30;3.00;;;31.10;40.30;;;;;;5088542;28;20520;-72
2021/07/03 11:56:25;;;;;;;3.10;2.90;;;30.90;40.20;;;;;;5088216;28;20643;-72
2021/07/03 11:58:53;;;;;;;2.83;2.33;;;30.70;39.40;;;;;;5088149;28;20560;-73
2021/07/03 12:01:21;;;;;;;3.13;2.93;;;30.50;40.20;;;;;;5090658;28;20475;-73
2021/07/03 12:04:06;;;;;;;2.70;2.60;;;30.50;39.40;;;;;;5088361;28;20436;-73
2021/07/03 12:06:34;;;;;;;3.23;3.03;;;30.50;39.90;;;;;;5083149;28;20467;-73
2021/07/03 12:09:17;;;;;;;2.50;2.40;;;30.40;39.90;;;;;;5089234;28;20433;-72
2021/07/03 12:12:03;;;;;;;2.93;2.73;;;30.60;39.70;;;;;;5090198;28;20436;-72
2021/07/03 12:14:36;;;;;;;3.03;2.83;;;30.30;39.30;;;;;;5084963;28;20421;-70
2021/07/03 12:17:04;;;;;;;2.80;2.60;;;30.10;39.60;;;;;;5090402;28;20532;-72
2021/07/03 12:19:31;;;;;;;3.37;2.77;;;30.10;40.00;;;;;;5090414;28;20496;-72
2021/07/03 12:22:09;;;;;;;3.00;2.80;;;30.00;39.20;;;;;;5089925;28;20448;-72
2021/07/03 12:24:43;;;;;;;2.60;2.40;;;30.00;39.80;;;;;;5089904;28;20452;-73
2021/07/03 12:27:24;;;;;;;2.87;2.67;;;29.90;40.00;;;;;;5086209;28;20472;-71
2021/07/03 12:29:52;;;;;;;2.80;2.60;;;29.90;40.20;;;;;;5088408;28;20460;-72
2021/07/03 12:32:20;;;;;;;2.77;2.63;;;30.00;40.00;;;;;;5089151;28;20508;-72
2021/07/03 12:34:48;;;;;;;2.70;2.60;;;30.20;40.80;;;;;;5085732;28;20435;-72
2021/07/03 12:37:18;;;;;;;2.60;2.40;;;30.00;40.20;;;;;;5078633;28;20437;-73
2021/07/03 12:39:51;;;;;;;3.13;2.93;;;30.10;40.20;;;;;;5089726;28;20500;-72
2021/07/03 12:42:25;;;;;;;3.10;2.80;;;30.00;40.50;;;;;;5089945;28;20468;-72
2021/07/03 12:45:03;;;;;;;2.93;2.70;;;29.90;40.30;;;;;;5089924;28;20471;-72
2021/07/03 12:47:36;;;;;;;3.03;2.83;;;29.70;40.30;;;;;;5086180;28;20502;-74
2021/07/03 12:50:09;;;;;;;3.20;3.00;;;29.70;40.30;;;;;;5085652;28;20469;-72
2021/07/03 12:52:43;;;;;;;3.03;2.90;;;29.70;40.90;;;;;;5085517;28;20431;-73
2021/07/03 12:55:39;;;;;;;2.80;2.60;;;29.90;41.00;;;;;;5084950;28;20440;-73
2021/07/03 12:58:18;;;;;;;6.83;2.77;;;30.00;40.60;;;;;;5065845;28;20527;-74
2021/07/03 13:00:55;;;;;;;2.60;2.50;;;29.90;40.80;;;;;;5065108;28;20569;-72
2021/07/03 13:03:25;;;;;;;11.80;3.20;;;29.80;41.10;;;;;;5074403;28;20520;-73